createdAt,value
2018-04-27T00:02:30.544Z,4.70
2018-04-27T00:05:05.141Z,4.60
2018-04-27T00:07:40.977Z,4.60
2018-04-27T00:10:16.005Z,4.50
2018-04-27T00:12:51.243Z,4.60
2018-04-27T00:15:25.882Z,4.50
2018-04-27T00:18:01.312Z,4.60
2018-04-27T00:20:36.056Z,4.40
2018-04-27T00:23:10.969Z,4.30
2018-04-27T00:25:46.631Z,4.30
2018-04-27T00:28:20.931Z,4.30
2018-04-27T00:30:56.062Z,4.20
2018-04-27T00:33:31.328Z,4.20
2018-04-27T00:36:05.004Z,4.20
2018-04-27T00:38:41.574Z,4.20
2018-04-27T00:41:17.965Z,4.20
2018-04-27T00:43:51.868Z,4.30
2018-04-27T00:46:25.670Z,4.30
2018-04-27T00:49:00.072Z,4.20
2018-04-27T00:51:33.768Z,4.00
2018-04-27T00:54:11.471Z,4.00
2018-04-27T00:56:46.194Z,4.00
2018-04-27T00:59:21.445Z,3.90
2018-04-27T01:01:56.881Z,4.00
2018-04-27T01:04:31.915Z,4.00
2018-04-27T01:07:06.863Z,4.00
2018-04-27T01:09:41.467Z,4.00
2018-04-27T01:12:16.202Z,4.00
2018-04-27T01:14:51.845Z,4.00
2018-04-27T01:17:27.758Z,4.00
2018-04-27T01:20:02.333Z,3.90
2018-04-27T01:22:37.674Z,3.80
2018-04-27T01:25:12.582Z,3.70
2018-04-27T01:27:47.325Z,3.60
2018-04-27T01:30:23.058Z,3.60
2018-04-27T01:32:59.018Z,3.60
2018-04-27T01:35:32.820Z,3.60
2018-04-27T01:38:07.448Z,3.50
2018-04-27T01:40:42.384Z,3.50
2018-04-27T01:43:16.182Z,3.50
2018-04-27T01:45:51.627Z,3.70
2018-04-27T01:48:25.344Z,3.70
2018-04-27T01:51:00.366Z,3.70
2018-04-27T01:53:34.988Z,3.60
2018-04-27T01:56:10.323Z,3.50
2018-04-27T01:58:44.904Z,3.50
2018-04-27T02:01:18.961Z,3.50
2018-04-27T02:03:53.479Z,3.50
2018-04-27T02:06:29.180Z,3.70
2018-04-27T02:09:03.548Z,3.60
2018-04-27T02:11:38.392Z,3.70
2018-04-27T02:14:13.001Z,3.80
2018-04-27T02:16:47.120Z,3.90
2018-04-27T02:19:21.428Z,4.00
2018-04-27T02:21:56.246Z,4.00
2018-04-27T02:24:30.469Z,4.00
2018-04-27T02:27:05.300Z,3.70
2018-04-27T02:29:40.233Z,3.70
2018-04-27T02:32:14.759Z,3.70
2018-04-27T02:34:49.804Z,3.60
2018-04-27T02:37:23.583Z,3.60
2018-04-27T02:39:59.035Z,3.50
2018-04-27T02:42:33.759Z,3.60
2018-04-27T02:45:09.823Z,3.70
2018-04-27T02:47:43.831Z,3.70
2018-04-27T02:50:19.785Z,3.80
2018-04-27T02:52:54.720Z,3.70
2018-04-27T02:55:30.975Z,3.60
2018-04-27T02:58:05.597Z,3.50
2018-04-27T03:00:40.547Z,3.50
2018-04-27T03:03:15.462Z,3.50
2018-04-27T03:05:50.596Z,3.50
2018-04-27T03:08:24.415Z,3.50
2018-04-27T03:10:59.641Z,3.50
2018-04-27T03:13:35.491Z,3.50
2018-04-27T03:16:10.008Z,3.60
2018-04-27T03:18:44.642Z,3.60
2018-04-27T03:21:18.406Z,3.60
2018-04-27T03:23:52.614Z,3.70
2018-04-27T03:26:28.202Z,3.50
2018-04-27T03:29:02.935Z,3.50
2018-04-27T03:31:38.477Z,3.50
2018-04-27T03:34:13.425Z,3.50
2018-04-27T03:36:48.838Z,3.50
2018-04-27T03:39:22.734Z,3.40
2018-04-27T03:41:58.418Z,3.20
2018-04-27T03:44:32.203Z,3.20
2018-04-27T03:47:08.698Z,3.20
2018-04-27T03:49:43.411Z,3.10
2018-04-27T03:52:17.838Z,3.10
2018-04-27T03:54:52.753Z,3.20
2018-04-27T03:57:28.213Z,3.20
2018-04-27T04:00:15.533Z,3.20
2018-04-27T04:03:01.710Z,3.10
2018-04-27T04:05:36.311Z,2.90
2018-04-27T04:08:10.340Z,2.90
2018-04-27T04:10:45.282Z,2.90
2018-04-27T04:13:21.440Z,2.80
2018-04-27T04:15:57.308Z,2.80
2018-04-27T04:18:30.794Z,2.80
2018-04-27T04:21:06.436Z,2.80
2018-04-27T04:23:41.573Z,2.80
2018-04-27T04:26:15.881Z,2.90
2018-04-27T04:28:50.299Z,2.90
2018-04-27T04:31:25.099Z,2.90
2018-04-27T04:33:59.756Z,2.90
2018-04-27T04:36:34.107Z,2.90
2018-04-27T04:39:10.548Z,3.00
2018-04-27T04:41:47.299Z,3.10
2018-04-27T04:44:21.933Z,3.10
2018-04-27T04:46:58.394Z,3.10
2018-04-27T04:49:33.643Z,3.20
2018-04-27T04:52:08.682Z,3.20
2018-04-27T04:54:44.436Z,3.40
2018-04-27T04:57:19.687Z,3.30
2018-04-27T04:59:54.302Z,3.60
2018-04-27T05:02:29.012Z,3.50
2018-04-27T05:05:02.819Z,3.70
2018-04-27T05:07:37.956Z,3.80
2018-04-27T05:10:13.605Z,4.10
2018-04-27T05:12:49.759Z,4.20
2018-04-27T05:15:26.134Z,4.30
2018-04-27T05:18:01.754Z,4.30
2018-04-27T05:20:37.225Z,4.50
2018-04-27T05:23:12.048Z,4.60
2018-04-27T05:25:48.615Z,4.70
2018-04-27T05:28:23.877Z,4.60
2018-04-27T05:31:10.143Z,4.80
2018-04-27T05:33:46.627Z,4.70
2018-04-27T05:36:21.433Z,4.60
2018-04-27T05:38:56.882Z,4.60
2018-04-27T05:41:31.713Z,4.70
2018-04-27T05:44:07.471Z,4.60
2018-04-27T05:46:41.587Z,4.60
2018-04-27T05:49:16.614Z,4.70
2018-04-27T05:51:50.620Z,4.80
2018-04-27T05:54:27.895Z,5.30
2018-04-27T05:57:01.609Z,5.30
2018-04-27T05:59:37.277Z,5.30
2018-04-27T06:02:11.260Z,5.30
2018-04-27T06:04:48.787Z,5.80
2018-04-27T06:07:22.574Z,5.90
2018-04-27T06:09:58.216Z,6.00
2018-04-27T06:12:36.167Z,6.20
2018-04-27T06:15:10.840Z,6.40
2018-04-27T06:17:45.728Z,6.40
2018-04-27T06:20:19.965Z,6.50
2018-04-27T06:22:55.491Z,6.50
2018-04-27T06:25:29.328Z,6.40
2018-04-27T06:28:04.162Z,6.60
2018-04-27T06:30:39.502Z,6.60
2018-04-27T06:33:14.147Z,6.80
2018-04-27T06:35:48.750Z,7.20
2018-04-27T06:38:23.152Z,7.40
2018-04-27T06:40:59.014Z,7.70
2018-04-27T06:43:33.654Z,8.10
2018-04-27T06:46:09.311Z,8.30
2018-04-27T06:48:43.210Z,8.20
2018-04-27T06:51:20.391Z,8.50
2018-04-27T06:53:56.835Z,8.70
2018-04-27T06:56:30.955Z,8.60
2018-04-27T06:59:07.834Z,9.10
2018-04-27T07:01:41.644Z,9.10
2018-04-27T07:04:18.526Z,9.50
2018-04-27T07:06:52.530Z,9.50
2018-04-27T07:09:27.878Z,9.70
2018-04-27T07:12:02.899Z,10.20
2018-04-27T07:14:39.431Z,10.20
2018-04-27T07:17:13.999Z,10.70
2018-04-27T07:19:48.835Z,10.80
2018-04-27T07:22:23.231Z,11.00
2018-04-27T07:24:58.783Z,11.20
2018-04-27T07:27:32.499Z,11.20
2018-04-27T07:30:07.825Z,11.70
2018-04-27T07:32:42.861Z,11.90
2018-04-27T07:35:18.307Z,12.00
2018-04-27T07:37:53.047Z,12.20
2018-04-27T07:40:28.886Z,12.40
2018-04-27T07:43:05.055Z,12.60
2018-04-27T07:45:40.279Z,12.70
2018-04-27T07:48:16.347Z,12.90
2018-04-27T07:50:51.289Z,13.00
2018-04-27T07:53:25.077Z,13.00
2018-04-27T07:56:00.311Z,13.30
2018-04-27T07:58:34.018Z,13.30
2018-04-27T08:01:08.972Z,13.60
2018-04-27T08:03:42.841Z,13.90
2018-04-27T08:06:17.463Z,14.40
2018-04-27T08:08:52.492Z,14.50
2018-04-27T08:11:28.771Z,14.70
2018-04-27T08:14:06.056Z,14.80
2018-04-27T08:16:41.554Z,14.90
2018-04-27T08:19:17.040Z,15.10
2018-04-27T08:21:52.026Z,15.40
2018-04-27T08:24:28.604Z,16.00
2018-04-27T08:27:03.192Z,16.40
2018-04-27T08:29:38.519Z,16.40
2018-04-27T08:32:13.130Z,16.30
2018-04-27T08:34:48.576Z,16.30
2018-04-27T08:37:22.493Z,16.40
2018-04-27T08:39:59.769Z,16.40
2018-04-27T08:42:34.758Z,16.70
2018-04-27T08:45:09.436Z,16.60
2018-04-27T08:47:44.256Z,16.80
2018-04-27T08:50:19.817Z,16.90
2018-04-27T08:52:56.483Z,17.30
2018-04-27T08:55:31.222Z,17.30
2018-04-27T08:58:08.175Z,17.50
2018-04-27T09:00:42.312Z,17.60
2018-04-27T09:03:17.444Z,17.80
2018-04-27T09:05:52.155Z,17.90
2018-04-27T09:08:29.335Z,17.90
2018-04-27T09:11:03.041Z,18.10
2018-04-27T09:13:37.866Z,18.50
2018-04-27T09:16:11.786Z,17.90
2018-04-27T09:18:47.339Z,18.00
2018-04-27T09:21:21.953Z,18.50
2018-04-27T09:23:57.264Z,18.80
2018-04-27T09:26:31.092Z,18.70
2018-04-27T09:29:07.563Z,18.90
2018-04-27T09:31:41.455Z,18.90
2018-04-27T09:34:18.039Z,18.80
2018-04-27T09:36:52.665Z,18.80
2018-04-27T09:39:29.432Z,18.70
2018-04-27T09:42:05.181Z,19.90
2018-04-27T09:44:39.083Z,19.90
2018-04-27T09:47:13.717Z,19.90
2018-04-27T09:49:48.658Z,20.20
2018-04-27T09:52:22.530Z,20.10
2018-04-27T09:54:57.926Z,20.30
2018-04-27T09:57:32.649Z,20.70
2018-04-27T10:00:09.163Z,20.40
2018-04-27T10:02:43.811Z,20.70
2018-04-27T10:05:20.681Z,20.70
2018-04-27T10:07:54.652Z,20.90
2018-04-27T10:10:28.623Z,20.70
2018-04-27T10:13:02.527Z,20.60
2018-04-27T10:15:37.097Z,20.80
2018-04-27T10:18:12.239Z,21.10
2018-04-27T10:20:46.371Z,21.10
2018-04-27T10:23:21.012Z,21.10
2018-04-27T10:25:57.577Z,21.40
2018-04-27T10:28:32.103Z,21.30
2018-04-27T10:31:06.222Z,21.20
2018-04-27T10:33:41.330Z,21.90
2018-04-27T10:36:15.042Z,22.00
2018-04-27T10:38:49.962Z,20.90
2018-04-27T10:41:23.751Z,20.90
2018-04-27T10:43:57.707Z,20.90
2018-04-27T10:46:31.591Z,21.50
2018-04-27T10:49:07.350Z,21.90
2018-04-27T10:51:41.963Z,21.80
2018-04-27T10:54:17.212Z,22.10
2018-04-27T10:56:51.507Z,22.40
2018-04-27T10:59:26.449Z,22.80
2018-04-27T11:02:02.295Z,23.30
2018-04-27T11:04:37.967Z,23.10
2018-04-27T11:07:11.642Z,23.00
2018-04-27T11:09:46.494Z,22.80
2018-04-27T11:12:20.788Z,22.80
2018-04-27T11:14:57.675Z,23.30
2018-04-27T11:17:32.904Z,23.30
2018-04-27T11:20:08.311Z,23.70
2018-04-27T11:22:42.971Z,24.50
2018-04-27T11:25:18.219Z,24.50
2018-04-27T11:27:52.736Z,23.80
2018-04-27T11:30:27.781Z,23.50
2018-04-27T11:33:02.688Z,24.00
2018-04-27T11:35:37.340Z,23.90
2018-04-27T11:38:11.148Z,24.30
2018-04-27T11:40:46.993Z,24.80
2018-04-27T11:43:21.815Z,25.50
2018-04-27T11:45:57.551Z,25.40
2018-04-27T11:48:32.288Z,25.90
2018-04-27T11:51:08.652Z,25.90
2018-04-27T11:53:43.271Z,25.70
2018-04-27T11:56:18.507Z,26.10
2018-04-27T11:58:52.200Z,26.10
2018-04-27T12:01:26.133Z,24.30
2018-04-27T12:04:00.640Z,25.10
2018-04-27T12:06:34.830Z,25.90
2018-04-27T12:09:09.987Z,26.20
2018-04-27T12:11:44.246Z,26.10
2018-04-27T12:14:19.033Z,25.90
2018-04-27T12:16:52.819Z,25.90
2018-04-27T12:19:27.651Z,26.30
2018-04-27T12:22:03.300Z,26.00
2018-04-27T12:24:38.116Z,25.80
2018-04-27T12:27:12.311Z,25.80
2018-04-27T12:29:47.083Z,26.20
2018-04-27T12:32:21.190Z,26.20
2018-04-27T12:34:56.217Z,26.10
2018-04-27T12:37:33.258Z,26.10
2018-04-27T12:40:07.652Z,26.90
2018-04-27T12:42:41.299Z,26.90
2018-04-27T12:45:16.351Z,28.00
2018-04-27T12:47:50.473Z,27.90
2018-04-27T12:50:25.068Z,29.20
2018-04-27T12:52:59.096Z,29.20
2018-04-27T12:55:35.718Z,29.30
2018-04-27T12:58:10.070Z,29.30
2018-04-27T13:00:45.307Z,30.00
2018-04-27T13:03:20.953Z,30.00
2018-04-27T13:05:56.918Z,30.50
2018-04-27T13:08:30.920Z,31.10
2018-04-27T13:11:07.917Z,31.50
2018-04-27T13:13:42.930Z,31.80
2018-04-27T13:16:17.875Z,31.70
2018-04-27T13:18:52.876Z,32.50
2018-04-27T13:21:28.941Z,32.50
2018-04-27T13:24:03.671Z,33.00
2018-04-27T13:26:39.398Z,33.30
2018-04-27T13:29:13.332Z,33.30
2018-04-27T13:31:48.079Z,32.50
2018-04-27T13:34:22.893Z,32.40
2018-04-27T13:36:56.906Z,32.40
2018-04-27T13:39:30.807Z,32.00
2018-04-27T13:42:06.871Z,33.00
2018-04-27T13:44:42.014Z,33.10
2018-04-27T13:47:18.550Z,33.10
2018-04-27T13:49:52.699Z,32.80
2018-04-27T13:52:29.955Z,33.30
2018-04-27T13:55:04.885Z,32.10
2018-04-27T13:57:40.738Z,33.00
2018-04-27T14:00:15.572Z,33.00
2018-04-27T14:02:50.393Z,31.70
2018-04-27T14:05:26.759Z,29.90
2018-04-27T14:08:00.556Z,29.90
2018-04-27T14:10:35.300Z,32.50
2018-04-27T14:13:09.903Z,33.40
2018-04-27T14:15:43.931Z,34.00
2018-04-27T14:18:19.840Z,33.50
2018-04-27T14:20:56.038Z,32.20
2018-04-27T14:23:30.867Z,32.90
2018-04-27T14:26:05.669Z,32.90
2018-04-27T14:28:39.883Z,34.50
2018-04-27T14:31:13.804Z,34.30
2018-04-27T14:33:48.744Z,35.80
2018-04-27T14:49:14.547Z,35.70
2018-04-27T14:51:49.221Z,35.60
2018-04-27T14:54:23.680Z,36.60
2018-04-27T14:56:57.900Z,36.50
2018-04-27T14:59:31.833Z,36.90
2018-04-27T15:02:05.815Z,37.40
2018-04-27T15:04:39.598Z,36.80
2018-04-27T15:07:14.229Z,37.10
2018-04-27T15:09:48.738Z,37.30
2018-04-27T15:12:23.337Z,37.20
2018-04-27T15:14:58.464Z,38.20
2018-04-27T15:17:33.223Z,38.00
2018-04-27T15:20:08.074Z,38.00
2018-04-27T15:22:42.017Z,37.90
2018-04-27T15:25:18.743Z,38.40
2018-04-27T15:27:53.480Z,38.00
2018-04-27T15:30:29.502Z,38.00
2018-04-27T15:33:03.552Z,38.20
2018-04-27T15:35:38.461Z,37.60
2018-04-27T15:38:16.482Z,37.30
2018-04-27T15:40:50.962Z,37.70
2018-04-27T15:43:26.358Z,37.30
2018-04-27T15:46:00.391Z,37.00
2018-04-27T15:48:38.059Z,37.90
2018-04-27T15:51:13.567Z,36.80
2018-04-27T15:53:49.650Z,36.60
2018-04-27T15:56:25.887Z,36.60
2018-04-27T15:59:00.723Z,37.60
2018-04-27T16:01:35.444Z,37.50
2018-04-27T16:04:09.659Z,37.30
2018-04-27T16:06:45.830Z,37.10
2018-04-27T16:09:21.480Z,37.10
2018-04-27T16:11:56.704Z,37.00
2018-04-27T16:14:31.326Z,36.70
2018-04-27T16:17:06.047Z,37.90
2018-04-27T16:19:40.063Z,37.90
2018-04-27T16:22:14.832Z,37.40
2018-04-27T16:24:51.156Z,37.50
2018-04-27T16:27:25.179Z,37.50
2018-04-27T16:30:00.390Z,37.00
2018-04-27T16:32:34.302Z,37.30
2018-04-27T16:35:10.247Z,37.70
2018-04-27T16:37:44.743Z,37.30
2018-04-27T16:40:18.467Z,37.20
2018-04-27T16:42:53.209Z,37.10
2018-04-27T16:45:28.962Z,36.70
2018-04-27T16:48:03.789Z,35.50
2018-04-27T16:50:38.431Z,35.50
2018-04-27T16:53:12.146Z,35.40
2018-04-27T16:55:49.301Z,35.30
2018-04-27T16:58:23.493Z,35.30
2018-04-27T17:00:59.470Z,35.70
2018-04-27T17:03:33.357Z,35.70
2018-04-27T17:06:09.541Z,34.50
2018-04-27T17:08:43.806Z,34.50
2018-04-27T17:11:19.716Z,32.00
2018-04-27T17:13:54.348Z,30.60
2018-04-27T17:16:29.311Z,29.60
2018-04-27T17:19:03.156Z,29.50
2018-04-27T17:21:37.899Z,27.80
2018-04-27T17:24:13.890Z,27.30
2018-04-27T17:26:49.484Z,27.30
2018-04-27T17:29:23.184Z,28.30
2018-04-27T17:31:57.574Z,29.00
2018-04-27T17:34:31.308Z,28.80
2018-04-27T17:37:05.490Z,28.70
2018-04-27T17:39:41.442Z,27.00
2018-04-27T17:42:16.610Z,27.00
2018-04-27T17:44:51.103Z,25.70
2018-04-27T17:47:24.811Z,25.70
2018-04-27T17:49:58.563Z,25.10
2018-04-27T17:52:33.807Z,24.40
2018-04-27T17:55:09.072Z,23.10
2018-04-27T17:57:43.446Z,23.00
2018-04-27T18:00:18.553Z,21.90
2018-04-27T18:02:52.578Z,21.90
2018-04-27T18:05:28.761Z,21.00
2018-04-27T18:08:07.007Z,21.00
2018-04-27T18:10:41.802Z,21.00
2018-04-27T18:13:19.292Z,20.60
2018-04-27T18:15:54.270Z,20.60
2018-04-27T18:18:29.514Z,20.40
2018-04-27T18:21:03.047Z,20.40
2018-04-27T18:23:38.528Z,20.40
2018-04-27T18:26:14.432Z,20.30
2018-04-27T18:28:51.232Z,20.20
2018-04-27T18:31:30.125Z,20.20
2018-04-27T18:34:05.059Z,19.90
2018-04-27T18:36:40.613Z,19.60
2018-04-27T18:39:15.795Z,19.60
2018-04-27T18:41:50.980Z,19.00
2018-04-27T18:44:25.359Z,18.90
2018-04-27T18:46:59.822Z,18.80
2018-04-27T18:49:33.708Z,18.70
2018-04-27T18:52:09.689Z,18.80
2018-04-27T18:54:43.391Z,18.80
2018-04-27T18:57:21.603Z,18.90
2018-04-27T19:00:02.819Z,18.90
2018-04-27T19:02:38.497Z,18.40
2018-04-27T19:05:12.429Z,18.40
2018-04-27T19:07:47.772Z,18.00
2018-04-27T19:10:21.887Z,17.80
2018-04-27T19:13:01.310Z,17.40
2018-04-27T19:15:37.991Z,17.00
2018-04-27T19:18:14.270Z,16.80
2018-04-27T19:20:51.323Z,16.70
2018-04-27T19:23:29.860Z,16.50
2018-04-27T19:26:06.921Z,16.40
2018-04-27T19:28:40.628Z,16.40
2018-04-27T19:31:15.965Z,16.10
2018-04-27T19:37:01.168Z,16.00
2018-04-27T19:39:49.022Z,15.60
2018-04-27T19:42:23.824Z,15.60
2018-04-27T19:45:01.822Z,15.40
2018-04-27T19:47:44.785Z,15.30
2018-04-27T19:50:38.706Z,15.20
2018-04-27T19:53:12.628Z,15.30
2018-04-27T19:55:48.585Z,15.00
2018-04-27T19:58:23.000Z,15.00
2018-04-27T20:01:00.024Z,14.80
2018-04-27T20:03:34.279Z,14.80
2018-04-27T20:06:08.813Z,14.60
2018-04-27T20:08:43.708Z,14.50
2018-04-27T20:11:19.878Z,14.60
2018-04-27T20:13:54.859Z,14.40
2018-04-27T20:16:38.879Z,14.30
2018-04-27T20:19:12.993Z,14.30
2018-04-27T20:21:48.946Z,14.10
2018-04-27T20:24:22.862Z,14.00
2018-04-27T20:26:58.810Z,13.90
2018-04-27T20:29:32.959Z,13.80
2018-04-27T20:32:10.038Z,13.80
2018-04-27T20:34:45.353Z,13.80
2018-04-27T20:37:20.235Z,13.70
2018-04-27T20:39:56.541Z,13.60
2018-04-27T20:42:31.352Z,13.50
2018-04-27T20:45:20.239Z,13.60
2018-04-27T20:47:56.683Z,13.60
2018-04-27T20:50:31.022Z,13.50
2018-04-27T20:53:05.027Z,13.60
2018-04-27T20:55:39.635Z,13.60
2018-04-27T20:58:14.157Z,13.70
2018-04-27T21:00:49.196Z,13.50
2018-04-27T21:03:24.228Z,13.30
2018-04-27T21:05:58.746Z,13.30
2018-04-27T21:08:32.566Z,13.50
2018-04-27T21:11:07.795Z,13.50
2018-04-27T21:13:42.511Z,13.50
2018-04-27T21:16:17.959Z,13.60
2018-04-27T21:18:52.371Z,13.60
2018-04-27T21:21:27.918Z,13.80
2018-04-27T21:24:02.720Z,14.10
2018-04-27T21:26:38.711Z,14.20
2018-04-27T21:29:38.513Z,14.10
2018-04-27T21:32:13.055Z,14.20
2018-04-27T21:34:49.724Z,14.20
2018-04-27T21:37:24.655Z,14.20
2018-04-27T21:39:59.155Z,14.20
2018-04-27T21:42:32.986Z,14.00
2018-04-27T21:45:08.695Z,13.90
2018-04-27T21:47:44.164Z,13.90
2018-04-27T21:50:21.145Z,13.60
2018-04-27T21:52:56.896Z,13.50
2018-04-27T21:55:31.562Z,13.50
2018-04-27T21:58:10.431Z,13.50
2018-04-27T22:00:45.799Z,13.40
2018-04-27T22:03:20.733Z,13.40
2018-04-27T22:05:57.995Z,13.30
2018-04-27T22:22:07.621Z,12.50
2018-04-27T22:24:49.918Z,12.50
2018-04-27T22:27:31.206Z,12.30
2018-04-27T22:30:38.081Z,12.30
2018-04-27T22:33:22.444Z,12.30
2018-04-27T22:36:01.879Z,12.00
2018-04-27T22:38:42.425Z,11.90
2018-04-27T22:41:17.686Z,12.10
2018-04-27T22:43:52.297Z,11.90
2018-04-27T22:46:29.479Z,11.70
2018-04-27T22:49:05.378Z,11.70
2018-04-27T22:51:43.834Z,11.70
2018-04-27T23:07:46.106Z,11.40
2018-04-27T23:10:20.123Z,11.30
2018-04-27T23:13:06.629Z,11.40
2018-04-27T23:15:41.364Z,11.20
2018-04-27T23:18:17.303Z,11.10
2018-04-27T23:20:53.546Z,11.10
2018-04-27T23:23:29.090Z,10.90
2018-04-27T23:26:02.818Z,10.90
2018-04-27T23:28:36.929Z,10.90
2018-04-27T23:31:10.602Z,10.80
2018-04-27T23:33:46.467Z,10.60
2018-04-27T23:36:20.290Z,10.60
2018-04-27T23:38:55.613Z,10.70
2018-04-27T23:41:29.717Z,10.70
2018-04-27T23:44:05.157Z,10.80
2018-04-27T23:46:38.978Z,10.80
2018-04-27T23:49:12.771Z,10.80
2018-04-27T23:51:47.506Z,10.70
2018-04-27T23:54:23.036Z,10.60
2018-04-27T23:56:59.018Z,10.50
2018-04-27T23:59:37.405Z,10.50
